createdAt,value
2023-05-11T00:00:07.052Z,7.43
2023-05-11T00:02:54.731Z,7.42
2023-05-11T00:05:47.773Z,7.41
2023-05-11T00:08:38.259Z,7.38
2023-05-11T00:11:27.039Z,7.35
2023-05-11T00:14:15.104Z,7.33
2023-05-11T00:17:03.392Z,7.30
2023-05-11T00:19:51.484Z,7.28
2023-05-11T00:22:29.958Z,7.25
2023-05-11T00:25:09.302Z,7.23
2023-05-11T00:27:58.208Z,7.20
2023-05-11T00:30:40.356Z,7.18
2023-05-11T00:33:29.385Z,7.16
2023-05-11T00:36:17.741Z,7.16
2023-05-11T00:38:56.138Z,7.15
2023-05-11T00:41:44.397Z,7.14
2023-05-11T00:44:33.020Z,7.13
2023-05-11T00:47:21.028Z,7.12
2023-05-11T00:50:10.827Z,7.10
2023-05-11T00:53:00.150Z,7.06
2023-05-11T00:55:48.306Z,7.02
2023-05-11T00:58:28.812Z,7.00
2023-05-11T01:01:18.255Z,6.99
2023-05-11T01:04:07.831Z,6.98
2023-05-11T01:07:01.040Z,6.97
2023-05-11T01:09:55.558Z,6.95
2023-05-11T01:12:37.790Z,6.93
2023-05-11T01:15:29.721Z,6.92
2023-05-11T01:18:22.311Z,6.91
2023-05-11T01:21:06.046Z,6.91
2023-05-11T01:24:09.106Z,6.89
2023-05-11T01:27:05.425Z,6.87
2023-05-11T01:30:11.670Z,6.87
2023-05-11T01:32:56.122Z,6.86
2023-05-11T01:35:48.286Z,6.86
2023-05-11T01:38:29.316Z,6.84
2023-05-11T01:41:18.817Z,6.83
2023-05-11T01:44:09.578Z,6.81
2023-05-11T01:46:59.367Z,6.77
2023-05-11T01:49:48.288Z,6.74
2023-05-11T01:52:27.815Z,6.72
2023-05-11T01:55:17.835Z,6.69
2023-05-11T01:58:08.185Z,6.67
2023-05-11T02:00:57.500Z,6.64
2023-05-11T02:03:46.488Z,6.60
2023-05-11T02:06:19.740Z,6.56
2023-05-11T02:09:10.597Z,6.53
2023-05-11T02:12:00.634Z,6.50
2023-05-11T02:14:49.974Z,6.48
2023-05-11T02:17:39.587Z,6.46
2023-05-11T02:20:28.257Z,6.43
2023-05-11T02:23:18.281Z,6.41
2023-05-11T02:26:08.130Z,6.40
2023-05-11T02:28:56.518Z,6.38
2023-05-11T02:31:46.772Z,6.35
2023-05-11T02:34:28.295Z,6.34
2023-05-11T02:37:06.832Z,6.32
2023-05-11T02:39:57.892Z,6.27
2023-05-11T02:42:48.884Z,6.23
2023-05-11T02:45:37.707Z,6.20
2023-05-11T02:48:22.496Z,6.18
2023-05-11T02:51:03.237Z,6.16
2023-05-11T02:53:52.437Z,6.15
2023-05-11T02:56:41.080Z,6.14
2023-05-11T02:59:30.579Z,6.12
2023-05-11T03:02:19.078Z,6.11
2023-05-11T03:05:08.153Z,6.09
2023-05-11T03:07:52.456Z,6.08
2023-05-11T03:10:42.458Z,6.07
2023-05-11T03:13:24.840Z,6.08
2023-05-11T03:16:07.719Z,6.08
2023-05-11T03:18:56.067Z,6.09
2023-05-11T03:21:44.863Z,6.10
2023-05-11T03:24:26.845Z,6.10
2023-05-11T03:27:16.295Z,6.10
2023-05-11T03:30:05.163Z,6.09
2023-05-11T03:32:50.030Z,6.09
2023-05-11T03:35:41.854Z,6.08
2023-05-11T03:38:31.052Z,6.09
2023-05-11T03:41:21.241Z,6.11
2023-05-11T03:44:11.013Z,6.14
2023-05-11T03:46:40.944Z,6.19
2023-05-11T03:49:31.613Z,6.23
2023-05-11T03:52:20.037Z,6.27
2023-05-11T03:55:11.094Z,6.31
2023-05-11T03:57:59.065Z,6.38
2023-05-11T04:00:48.674Z,6.46
2023-05-11T04:03:57.599Z,6.56
2023-05-11T04:06:45.780Z,6.74
2023-05-11T04:09:36.780Z,7.31
2023-05-11T04:12:25.024Z,8.28
2023-05-11T04:15:13.096Z,9.24
2023-05-11T04:18:01.047Z,10.43
2023-05-11T04:20:49.851Z,11.68
2023-05-11T04:23:38.217Z,12.77
2023-05-11T04:26:26.437Z,13.70
2023-05-11T04:29:15.400Z,14.49
2023-05-11T04:31:59.257Z,15.32
2023-05-11T04:34:40.986Z,15.79
2023-05-11T04:37:29.690Z,15.47
2023-05-11T04:40:18.405Z,15.25
2023-05-11T04:43:06.926Z,15.31
2023-05-11T04:45:54.879Z,16.16
2023-05-11T04:48:45.841Z,17.00
2023-05-11T04:51:32.979Z,17.63
2023-05-11T04:54:21.059Z,18.36
2023-05-11T04:57:11.118Z,19.05
2023-05-11T04:59:51.709Z,19.61
2023-05-11T05:02:39.964Z,20.06
2023-05-11T05:05:28.826Z,20.52
2023-05-11T05:08:18.129Z,21.08
2023-05-11T05:11:06.479Z,21.58
2023-05-11T05:13:55.069Z,21.96
2023-05-11T05:17:03.839Z,22.42
2023-05-11T05:19:51.115Z,22.99
2023-05-11T05:22:39.518Z,23.41
2023-05-11T05:25:22.687Z,23.55
2023-05-11T05:28:10.879Z,23.22
2023-05-11T05:30:59.291Z,22.22
2023-05-11T05:33:49.060Z,21.23
2023-05-11T05:36:38.641Z,20.49
2023-05-11T05:39:27.479Z,20.80
2023-05-11T05:42:16.098Z,21.27
2023-05-11T05:45:08.169Z,21.48
2023-05-11T05:47:59.979Z,21.69
2023-05-11T05:50:48.088Z,21.67
2023-05-11T05:53:31.704Z,21.56
2023-05-11T05:56:21.329Z,21.01
2023-05-11T05:59:10.345Z,20.48
2023-05-11T06:01:58.715Z,19.98
2023-05-11T06:04:47.455Z,19.29
2023-05-11T06:07:36.000Z,18.75
2023-05-11T06:10:26.350Z,18.18
2023-05-11T06:13:14.520Z,17.90
2023-05-11T06:16:04.056Z,17.66
2023-05-11T06:18:52.664Z,17.46
2023-05-11T06:21:43.291Z,17.27
2023-05-11T06:24:36.059Z,17.15
2023-05-11T06:27:25.616Z,17.02
2023-05-11T06:32:21.073Z,16.59
2023-05-11T06:35:13.783Z,16.27
2023-05-11T06:38:07.941Z,16.16
2023-05-11T06:41:00.724Z,16.00
2023-05-11T06:43:52.492Z,15.83
2023-05-11T06:46:51.619Z,15.70
2023-05-11T06:49:46.426Z,15.66
2023-05-11T06:52:40.460Z,15.63
2023-05-11T06:55:33.940Z,15.67
2023-05-11T06:58:25.978Z,15.63
2023-05-11T07:01:09.264Z,15.55
2023-05-11T07:03:54.172Z,15.56
2023-05-11T07:06:48.210Z,15.58
2023-05-11T07:09:41.998Z,15.61
2023-05-11T07:12:35.650Z,15.70
2023-05-11T07:15:22.621Z,15.80
2023-05-11T07:18:54.690Z,16.01
2023-05-11T07:21:46.355Z,16.07
2023-05-11T07:24:39.565Z,16.19
2023-05-11T07:27:45.846Z,16.32
2023-05-11T07:30:46.092Z,16.41
2023-05-11T07:33:40.919Z,16.43
2023-05-11T07:36:33.680Z,16.50
2023-05-11T07:39:17.292Z,16.59
2023-05-11T07:42:09.691Z,16.68
2023-05-11T07:45:02.652Z,16.55
2023-05-11T07:47:46.259Z,16.47
2023-05-11T07:50:41.393Z,16.56
2023-05-11T07:53:36.839Z,16.66
2023-05-11T07:56:29.410Z,16.74
2023-05-11T07:59:12.018Z,16.71
2023-05-11T08:02:04.866Z,16.76
2023-05-11T08:04:47.803Z,16.77
2023-05-11T08:07:41.779Z,16.78
2023-05-11T08:10:35.430Z,16.73
2023-05-11T08:13:28.627Z,16.78
2023-05-11T08:16:21.932Z,16.87
2023-05-11T08:19:14.350Z,16.85
2023-05-11T08:22:07.785Z,16.85
2023-05-11T08:25:00.332Z,16.89
2023-05-11T08:27:52.622Z,16.97
2023-05-11T08:30:45.296Z,17.07
2023-05-11T08:33:38.888Z,17.14
2023-05-11T08:36:32.064Z,17.21
2023-05-11T08:39:43.714Z,17.37
2023-05-11T08:42:30.575Z,17.58
2023-05-11T08:45:24.101Z,17.72
2023-05-11T08:48:11.456Z,17.82
2023-05-11T08:51:05.429Z,18.01
2023-05-11T08:53:59.893Z,18.10
2023-05-11T08:56:54.754Z,18.33
2023-05-11T08:59:49.131Z,18.61
2023-05-11T09:02:32.911Z,18.87
2023-05-11T09:05:20.597Z,19.18
2023-05-11T09:08:15.474Z,19.53
2023-05-11T09:11:11.108Z,19.85
2023-05-11T09:14:04.752Z,19.96
2023-05-11T09:16:58.923Z,20.14
2023-05-11T09:20:06.669Z,20.38
2023-05-11T09:22:59.605Z,20.56
2023-05-11T09:25:52.005Z,20.43
2023-05-11T09:29:02.371Z,20.68
2023-05-11T09:31:56.986Z,21.01
2023-05-11T09:34:49.349Z,21.32
2023-05-11T09:37:57.832Z,21.56
2023-05-11T09:40:56.310Z,21.76
2023-05-11T09:43:50.323Z,21.84
2023-05-11T09:46:44.739Z,21.84
2023-05-11T09:49:53.007Z,21.87
2023-05-11T09:52:53.523Z,22.07
2023-05-11T09:55:54.691Z,22.25
2023-05-11T09:58:52.637Z,22.33
2023-05-11T10:01:45.463Z,22.23
2023-05-11T10:04:38.050Z,22.38
2023-05-11T10:07:32.254Z,22.60
2023-05-11T10:10:25.505Z,22.71
2023-05-11T10:13:18.028Z,22.90
2023-05-11T10:16:13.342Z,23.06
2023-05-11T10:19:06.572Z,23.23
2023-05-11T10:21:57.873Z,23.27
2023-05-11T10:24:51.409Z,23.15
2023-05-11T10:27:40.181Z,23.09
2023-05-11T10:30:13.837Z,23.12
2023-05-11T10:33:07.666Z,23.16
2023-05-11T10:36:01.241Z,23.15
2023-05-11T10:38:55.846Z,23.00
2023-05-11T10:42:06.063Z,23.01
2023-05-11T10:45:14.067Z,23.05
2023-05-11T10:48:40.314Z,22.82
2023-05-11T10:51:41.875Z,22.89
2023-05-11T10:54:51.549Z,23.16
2023-05-11T10:58:09.621Z,23.29
2023-05-11T11:01:27.341Z,23.28
2023-05-11T11:04:20.620Z,23.31
2023-05-11T11:07:09.104Z,23.24
2023-05-11T11:10:06.785Z,23.22
2023-05-11T11:13:07.364Z,23.21
2023-05-11T11:16:16.746Z,23.22
2023-05-11T11:19:42.164Z,23.23
2023-05-11T11:22:51.369Z,23.28
2023-05-11T11:25:56.413Z,23.27
2023-05-11T11:29:13.641Z,23.23
2023-05-11T11:32:30.234Z,23.09
2023-05-11T11:35:50.041Z,22.94
2023-05-11T11:38:34.269Z,22.83
2023-05-11T11:41:34.234Z,22.63
2023-05-11T11:44:27.876Z,22.61
2023-05-11T11:47:34.029Z,22.68
2023-05-11T11:50:31.069Z,22.84
2023-05-11T11:54:10.168Z,23.02
2023-05-11T11:57:03.082Z,23.11
2023-05-11T11:59:55.751Z,23.14
2023-05-11T12:02:49.308Z,23.13
2023-05-11T12:05:45.586Z,23.23
2023-05-11T12:08:40.401Z,23.28
2023-05-11T12:11:33.186Z,23.28
2023-05-11T12:14:26.463Z,23.29
2023-05-11T12:17:25.268Z,23.17
2023-05-11T12:20:20.673Z,22.95
2023-05-11T12:23:15.575Z,22.83
2023-05-11T12:26:11.969Z,22.63
2023-05-11T12:29:11.863Z,22.43
2023-05-11T12:32:05.451Z,22.34
2023-05-11T12:35:06.154Z,22.40
2023-05-11T12:38:00.833Z,22.40
2023-05-11T12:40:54.910Z,22.35
2023-05-11T12:43:47.360Z,22.17
2023-05-11T12:46:40.169Z,22.04
2023-05-11T12:49:32.653Z,22.02
2023-05-11T12:52:17.778Z,22.09
2023-05-11T12:55:11.891Z,22.07
2023-05-11T12:58:15.370Z,22.10
2023-05-11T13:01:11.328Z,21.97
2023-05-11T13:03:54.474Z,21.97
2023-05-11T13:06:38.413Z,21.95
2023-05-11T13:09:27.701Z,21.89
2023-05-11T13:12:21.300Z,21.85
2023-05-11T13:15:16.628Z,21.76
2023-05-11T13:18:03.710Z,21.73
2023-05-11T13:21:10.016Z,21.76
2023-05-11T13:24:04.183Z,21.66
2023-05-11T13:26:58.623Z,21.70
2023-05-11T13:29:50.908Z,21.84
2023-05-11T13:32:43.417Z,21.92
2023-05-11T13:35:39.329Z,21.84
2023-05-11T13:38:32.182Z,21.71
2023-05-11T13:41:17.332Z,21.61
2023-05-11T13:44:10.094Z,21.57
2023-05-11T13:46:56.031Z,21.53
2023-05-11T13:49:49.169Z,21.56
2023-05-11T13:52:42.175Z,21.53
2023-05-11T13:55:34.559Z,21.50
2023-05-11T13:58:28.314Z,21.48
2023-05-11T14:01:20.876Z,21.47
2023-05-11T14:04:12.755Z,21.44
2023-05-11T14:07:05.980Z,21.38
2023-05-11T14:09:58.418Z,21.30
2023-05-11T14:12:39.705Z,21.30
2023-05-11T14:15:32.905Z,21.20
2023-05-11T14:18:26.195Z,21.06
2023-05-11T14:21:18.957Z,20.97
2023-05-11T14:24:12.766Z,20.95
2023-05-11T14:27:00.494Z,20.94
2023-05-11T14:29:53.160Z,20.96
2023-05-11T14:32:46.055Z,20.94
2023-05-11T14:35:40.107Z,20.95
2023-05-11T14:38:32.924Z,20.96
2023-05-11T14:41:25.775Z,21.00
2023-05-11T14:44:19.049Z,20.97
2023-05-11T14:47:12.052Z,20.85
2023-05-11T14:50:04.759Z,20.74
2023-05-11T14:52:57.040Z,20.61
2023-05-11T14:55:49.485Z,20.54
2023-05-11T14:58:42.025Z,20.50
2023-05-11T15:02:19.785Z,20.38
2023-05-11T15:04:47.516Z,20.17
2023-05-11T15:07:33.483Z,20.01
2023-05-11T15:10:16.898Z,19.93
2023-05-11T15:13:10.285Z,19.86
2023-05-11T15:16:01.546Z,19.77
2023-05-11T15:18:53.838Z,19.67
2023-05-11T15:21:46.280Z,19.59
2023-05-11T15:24:40.014Z,19.52
2023-05-11T15:27:32.740Z,19.47
2023-05-11T15:30:25.827Z,19.37
2023-05-11T15:33:18.481Z,19.31
2023-05-11T15:36:02.560Z,19.31
2023-05-11T15:38:54.907Z,19.29
2023-05-11T15:41:47.663Z,19.20
2023-05-11T15:44:41.647Z,19.12
2023-05-11T15:47:34.284Z,19.07
2023-05-11T15:50:27.815Z,19.02
2023-05-11T15:53:20.358Z,18.98
2023-05-11T15:56:04.080Z,18.94
2023-05-11T15:58:56.589Z,18.90
2023-05-11T16:01:49.566Z,18.86
2023-05-11T16:04:42.193Z,18.83
2023-05-11T16:07:27.471Z,18.80
2023-05-11T16:10:20.202Z,18.75
2023-05-11T16:13:12.869Z,18.65
2023-05-11T16:16:07.836Z,18.57
2023-05-11T16:19:00.651Z,18.52
2023-05-11T16:21:53.482Z,18.48
2023-05-11T16:24:46.469Z,18.43
2023-05-11T16:27:41.326Z,18.39
2023-05-11T16:30:34.040Z,18.32
2023-05-11T16:33:26.839Z,18.26
2023-05-11T16:36:19.220Z,18.20
2023-05-11T16:39:13.058Z,18.17
2023-05-11T16:42:06.595Z,18.12
2023-05-11T16:44:56.044Z,18.07
2023-05-11T16:47:48.597Z,18.00
2023-05-11T16:50:41.231Z,17.93
2023-05-11T16:53:33.862Z,17.85
2023-05-11T16:56:26.747Z,17.80
2023-05-11T16:59:19.447Z,17.73
2023-05-11T17:02:12.205Z,17.66
2023-05-11T17:05:05.680Z,17.59
2023-05-11T17:07:58.041Z,17.55
2023-05-11T17:10:41.569Z,17.49
2023-05-11T17:13:35.201Z,17.43
2023-05-11T17:16:28.770Z,17.36
2023-05-11T17:19:21.446Z,17.26
2023-05-11T17:22:03.571Z,17.18
2023-05-11T17:24:58.293Z,17.10
2023-05-11T17:27:52.762Z,17.01
2023-05-11T17:30:48.208Z,16.93
2023-05-11T17:33:43.618Z,16.84
2023-05-11T17:36:36.806Z,16.74
2023-05-11T17:39:21.493Z,16.65
2023-05-11T17:42:14.275Z,16.56
2023-05-11T17:45:10.249Z,16.47
2023-05-11T17:48:03.160Z,16.36
2023-05-11T17:50:51.879Z,16.26
2023-05-11T17:53:44.181Z,16.18
2023-05-11T17:56:37.128Z,16.08
2023-05-11T17:59:31.585Z,15.96
2023-05-11T18:02:25.085Z,15.85
2023-05-11T18:05:18.531Z,15.74
2023-05-11T18:08:11.049Z,15.64
2023-05-11T18:11:04.169Z,15.53
2023-05-11T18:13:56.986Z,15.44
2023-05-11T18:16:51.154Z,15.33
2023-05-11T18:19:44.108Z,15.22
2023-05-11T18:22:37.843Z,15.13
2023-05-11T18:25:32.508Z,15.01
2023-05-11T18:28:24.964Z,14.89
2023-05-11T18:31:19.424Z,14.77
2023-05-11T18:34:11.886Z,14.65
2023-05-11T18:37:04.685Z,14.51
2023-05-11T18:39:57.428Z,14.39
2023-05-11T18:42:49.890Z,14.29
2023-05-11T18:45:41.623Z,14.20
2023-05-11T18:48:35.941Z,14.09
2023-05-11T18:51:29.117Z,13.99
2023-05-11T18:54:12.908Z,13.88
2023-05-11T18:56:58.658Z,13.78
2023-05-11T18:59:52.083Z,13.67
2023-05-11T19:02:39.170Z,13.55
2023-05-11T19:05:32.770Z,13.42
2023-05-11T19:08:25.929Z,13.30
2023-05-11T19:11:18.767Z,13.20
2023-05-11T19:14:14.700Z,13.13
2023-05-11T19:17:08.281Z,13.05
2023-05-11T19:20:00.960Z,12.98
2023-05-11T19:22:53.583Z,12.93
2023-05-11T19:25:46.326Z,12.85
2023-05-11T19:28:40.329Z,12.75
2023-05-11T19:31:33.087Z,12.64
2023-05-11T19:34:25.939Z,12.59
2023-05-11T19:37:18.972Z,12.56
2023-05-11T19:40:44.029Z,12.54
2023-05-11T19:43:38.490Z,12.49
2023-05-11T19:46:31.209Z,12.43
2023-05-11T19:49:17.780Z,12.43
2023-05-11T19:52:10.681Z,12.42
2023-05-11T19:55:03.658Z,12.39
2023-05-11T19:57:38.626Z,12.36
2023-05-11T20:00:25.445Z,12.33
2023-05-11T20:03:18.701Z,12.31
2023-05-11T20:06:11.526Z,12.29
2023-05-11T20:09:05.578Z,12.29
2023-05-11T20:11:51.569Z,12.31
2023-05-11T20:14:44.083Z,12.30
2023-05-11T20:17:27.749Z,12.28
2023-05-11T20:20:20.529Z,12.27
2023-05-11T20:23:13.472Z,12.26
2023-05-11T20:25:53.841Z,12.23
2023-05-11T20:28:27.579Z,12.21
2023-05-11T20:31:21.781Z,12.22
2023-05-11T20:34:14.330Z,12.21
2023-05-11T20:37:09.075Z,12.20
2023-05-11T20:40:01.603Z,12.18
2023-05-11T20:42:54.012Z,12.15
2023-05-11T20:45:37.880Z,12.12
2023-05-11T20:48:39.080Z,12.12
2023-05-11T20:51:35.270Z,12.12
2023-05-11T20:54:28.503Z,12.09
2023-05-11T20:57:22.442Z,12.08
2023-05-11T21:02:53.896Z,12.04
2023-05-11T21:05:46.754Z,12.00
2023-05-11T21:08:31.768Z,11.98
2023-05-11T21:11:13.185Z,11.95
2023-05-11T21:14:06.040Z,11.90
2023-05-11T21:16:58.565Z,11.85
2023-05-11T21:19:50.946Z,11.80
2023-05-11T21:22:43.562Z,11.73
2023-05-11T21:25:36.897Z,11.68
2023-05-11T21:28:29.622Z,11.65
2023-05-11T21:31:22.182Z,11.59
2023-05-11T21:34:15.438Z,11.52
2023-05-11T21:37:08.917Z,11.47
2023-05-11T21:40:00.452Z,11.42
2023-05-11T21:42:52.796Z,11.35
2023-05-11T21:45:47.105Z,11.30
2023-05-11T21:48:42.534Z,11.26
2023-05-11T21:51:37.233Z,11.23
2023-05-11T21:54:29.592Z,11.20
2023-05-11T21:57:22.211Z,11.17
2023-05-11T22:00:18.851Z,11.14
2023-05-11T22:03:12.159Z,11.12
2023-05-11T22:06:05.183Z,11.10
2023-05-11T22:08:57.876Z,11.07
2023-05-11T22:11:50.172Z,11.07
2023-05-11T22:14:36.878Z,11.03
2023-05-11T22:17:29.718Z,11.01
2023-05-11T22:20:22.200Z,10.97
2023-05-11T22:23:04.692Z,10.93
2023-05-11T22:25:56.932Z,10.90
2023-05-11T22:28:49.346Z,10.87
2023-05-11T22:31:44.046Z,10.84
2023-05-11T22:34:31.302Z,10.83
2023-05-11T22:37:23.933Z,10.81
2023-05-11T22:40:17.151Z,10.79
2023-05-11T22:43:10.249Z,10.76
2023-05-11T22:46:02.802Z,10.71
2023-05-11T22:48:55.557Z,10.67
2023-05-11T22:51:48.561Z,10.62
2023-05-11T22:54:36.730Z,10.57
2023-05-11T22:57:29.657Z,10.52
2023-05-11T23:00:14.257Z,10.48
2023-05-11T23:03:07.722Z,10.45
2023-05-11T23:06:00.591Z,10.40
2023-05-11T23:08:53.905Z,10.34
2023-05-11T23:11:41.580Z,10.28
2023-05-11T23:14:29.628Z,10.23
2023-05-11T23:17:22.366Z,10.18
2023-05-11T23:20:15.737Z,10.13
2023-05-11T23:23:01.500Z,10.09
2023-05-11T23:25:53.887Z,10.05
2023-05-11T23:28:46.866Z,10.01
2023-05-11T23:31:34.443Z,9.96
2023-05-11T23:34:29.104Z,9.93
2023-05-11T23:37:22.307Z,9.89
2023-05-11T23:40:15.327Z,9.85
2023-05-11T23:43:08.506Z,9.82
2023-05-11T23:46:01.321Z,9.79
2023-05-11T23:48:53.685Z,9.77
2023-05-11T23:51:46.195Z,9.74
2023-05-11T23:54:38.549Z,9.71
2023-05-11T23:57:31.674Z,9.67
